Time;durP1;ratioP1;P1;durP2;ratioP2;P2;SDS_P1;SDS_P2;PMS_P1;PMS_P2;Temp;Humidity;BMP_temperature;BMP_pressure;BME280_temperature;BME280_humidity;BME280_pressure;Samples;Min_cycle;Max_cycle;Signal;HPM_P1;HPM_P2
2022/05/23 00:00:57;;;;;;;2.95;1.90;;;;;;;15.10;65.03;95802.28;2065497;28;20199;-64
2022/05/23 00:01:59;;;;;;;2.08;1.52;;;;;;;15.00;64.97;95802.97;2066586;28;20241;-64
2022/05/23 00:03:00;;;;;;;8.00;2.33;;;;;;;15.04;64.81;95800.94;2067921;28;20205;-65
2022/05/23 00:04:02;;;;;;;7.20;2.30;;;;;;;14.93;65.17;95800.94;2069808;28;20357;-64
2022/05/23 00:05:05;;;;;;;3.33;1.83;;;;;;;14.97;65.31;95797.09;2065834;28;20210;-64
2022/05/23 00:06:07;;;;;;;4.00;2.40;;;;;;;14.78;66.07;95788.00;2065904;28;20205;-64
2022/05/23 00:07:12;;;;;;;5.25;2.40;;;;;;;14.86;65.66;95803.19;2068602;28;20572;-64
2022/05/23 00:08:15;;;;;;;4.40;2.30;;;;;;;14.99;65.14;95797.84;2067707;28;20206;-65
2022/05/23 00:09:17;;;;;;;4.90;2.35;;;;;;;15.01;65.07;95798.56;2065199;28;20207;-65
2022/05/23 00:10:21;;;;;;;1.75;1.30;;;;;;;15.05;65.11;95794.75;2067661;28;20213;-64
2022/05/23 00:11:23;;;;;;;4.85;1.80;;;;;;;15.11;64.80;95798.69;2068325;28;20206;-64
2022/05/23 00:12:25;;;;;;;3.22;1.63;;;;;;;15.05;64.89;95801.81;2064910;28;20209;-65
2022/05/23 00:13:27;;;;;;;2.85;1.63;;;;;;;15.00;65.07;95791.63;2068444;28;20201;-65
2022/05/23 00:14:30;;;;;;;5.97;2.03;;;;;;;15.07;64.78;95792.84;2068127;28;20577;-64
2022/05/23 00:15:33;;;;;;;5.72;1.95;;;;;;;15.08;64.77;95791.03;2067203;28;20249;-64
2022/05/23 00:16:37;;;;;;;2.63;1.58;;;;;;;15.01;64.63;95778.34;2068303;28;20221;-64
2022/05/23 00:17:40;;;;;;;6.45;2.58;;;;;;;15.02;64.86;95795.00;2066630;28;20251;-65
2022/05/23 00:18:41;;;;;;;3.65;1.95;;;;;;;15.06;64.90;95796.44;2068135;28;20214;-64
2022/05/23 00:19:43;;;;;;;5.00;2.03;;;;;;;15.12;64.42;95790.69;2067637;28;20198;-64
2022/05/23 00:20:44;;;;;;;5.35;2.08;;;;;;;15.18;64.29;95776.22;2067415;28;20197;-64
2022/05/23 00:21:45;;;;;;;2.88;1.70;;;;;;;15.07;64.60;95770.97;2065919;28;20260;-65
2022/05/23 00:22:47;;;;;;;4.32;2.30;;;;;;;14.93;64.95;95761.50;2065632;28;20248;-64
2022/05/23 00:23:49;;;;;;;4.32;1.88;;;;;;;14.95;64.75;95762.22;2067431;28;20717;-65
2022/05/23 00:24:50;;;;;;;5.78;1.55;;;;;;;14.97;64.66;95755.03;2067956;28;20202;-64
2022/05/23 00:25:52;;;;;;;6.30;1.92;;;;;;;14.88;64.70;95745.25;2063589;28;20202;-64
2022/05/23 00:26:53;;;;;;;5.90;1.77;;;;;;;14.94;64.82;95753.47;2060359;28;20226;-64
2022/05/23 00:27:55;;;;;;;4.25;1.75;;;;;;;14.95;64.70;95755.16;2060971;28;20199;-64
2022/05/23 00:28:56;;;;;;;5.22;1.77;;;;;;;14.96;64.73;95750.75;2061908;28;20207;-64
2022/05/23 00:29:57;;;;;;;2.55;1.65;;;;;;;14.95;64.98;95757.78;2067788;28;20195;-64
2022/05/23 00:30:59;;;;;;;2.70;1.50;;;;;;;14.97;64.85;95755.03;2069098;28;20217;-65
2022/05/23 00:36:00;;;;;;;3.85;2.00;;;;;;;14.72;64.44;95693.84;2066845;28;20194;-64
2022/05/23 00:37:02;;;;;;;6.30;1.55;;;;;;;14.84;64.67;95726.22;2067093;28;20645;-64
2022/05/23 00:38:04;;;;;;;3.83;1.30;;;;;;;14.82;64.73;95733.41;2067248;28;20556;-64
2022/05/23 00:39:06;;;;;;;6.70;1.83;;;;;;;14.84;64.70;95726.22;2070592;28;20197;-64
2022/05/23 00:40:18;;;;;;;3.90;2.10;;;;;;;14.78;64.70;95721.44;2069690;28;20756;-64
2022/05/23 00:43:21;;;;;;;5.72;1.70;;;;;;;14.76;64.63;95732.09;2066073;28;20206;-64
2022/05/23 00:44:26;;;;;;;4.63;1.65;;;;;;;14.79;64.11;95728.38;2065416;28;20291;-65
2022/05/23 00:45:28;;;;;;;4.38;1.90;;;;;;;14.84;64.52;95731.50;2066633;28;20224;-64
2022/05/23 00:46:30;;;;;;;2.60;1.60;;;;;;;14.74;64.85;95731.38;2068411;28;20217;-64
2022/05/23 00:47:35;;;;;;;3.65;1.95;;;;;;;14.65;65.37;95734.69;2068147;28;20202;-64
2022/05/23 00:48:36;;;;;;;5.95;1.75;;;;;;;14.35;66.41;95730.75;2068197;28;20228;-64
2022/05/23 00:49:38;;;;;;;3.25;1.77;;;;;;;14.33;66.75;95732.66;2071878;28;20202;-61
2022/05/23 00:50:45;;;;;;;2.90;1.80;;;;;;;14.16;66.28;95703.22;2066688;28;20211;-62
2022/05/23 00:51:47;;;;;;;3.45;1.85;;;;;;;14.36;66.24;95732.44;2066535;28;20609;-62
2022/05/23 00:52:52;;;;;;;4.57;1.98;;;;;;;14.36;66.13;95727.19;2065580;28;20614;-62
2022/05/23 00:53:57;;;;;;;3.38;1.52;;;;;;;14.37;66.15;95724.44;2070912;28;20230;-62
2022/05/23 00:55:04;;;;;;;3.22;1.95;;;;;;;14.40;65.86;95726.00;2064668;28;20556;-62
2022/05/23 00:56:07;;;;;;;1.98;1.63;;;;;;;14.40;66.07;95725.13;2064209;28;20657;-61
2022/05/23 00:57:14;;;;;;;2.78;1.80;;;;;;;14.41;66.07;95727.69;2064584;28;20202;-61
2022/05/23 00:58:21;;;;;;;5.07;1.90;;;;;;;14.45;66.37;95731.75;2067903;28;20204;-61
2022/05/23 00:59:29;;;;;;;2.50;1.55;;;;;;;14.45;65.95;95717.75;2073646;28;20208;-62
2022/05/23 01:00:31;;;;;;;5.10;1.83;;;;;;;14.43;66.05;95731.00;2074092;28;20193;-62
2022/05/23 01:01:37;;;;;;;2.78;1.65;;;;;;;14.44;65.76;95729.25;2069677;28;20225;-61
2022/05/23 01:02:40;;;;;;;3.38;1.88;;;;;;;14.40;65.86;95718.13;2067272;28;20203;-62
2022/05/23 01:03:42;;;;;;;3.65;1.75;;;;;;;14.31;66.11;95708.28;2065781;28;20198;-62
2022/05/23 01:04:44;;;;;;;3.22;1.60;;;;;;;14.37;66.27;95718.34;2065889;28;20206;-62
2022/05/23 01:05:47;;;;;;;3.25;2.00;;;;;;;14.32;66.69;95721.31;2066522;28;20202;-62
2022/05/23 01:06:49;;;;;;;2.75;1.40;;;;;;;14.18;66.71;95705.72;2065850;28;20225;-62
2022/05/23 01:07:50;;;;;;;2.28;1.20;;;;;;;14.28;66.78;95711.16;2063924;28;20212;-62
2022/05/23 01:08:55;;;;;;;9.13;1.70;;;;;;;14.13;67.30;95707.88;2068338;28;20209;-62
2022/05/23 01:09:56;;;;;;;5.00;2.00;;;;;;;13.92;67.96;95699.81;2065387;28;20197;-61
2022/05/23 01:10:57;;;;;;;2.60;1.60;;;;;;;13.73;68.47;95698.50;2067208;28;20210;-61
2022/05/23 01:12:00;;;;;;;3.80;1.58;;;;;;;13.77;68.19;95678.97;2066323;28;20225;-62
2022/05/23 01:13:03;;;;;;;3.15;1.65;;;;;;;13.95;67.66;95689.88;2067883;28;20199;-62
2022/05/23 01:14:05;;;;;;;5.47;1.88;;;;;;;14.01;67.49;95689.44;2065793;28;20214;-62
2022/05/23 01:15:20;;;;;;;1.65;1.42;;;;;;;14.06;67.22;95696.16;2066898;28;20215;-61
2022/05/23 01:16:24;;;;;;;3.15;1.95;;;;;;;14.04;67.38;95691.00;2066452;28;20204;-61
2022/05/23 01:17:27;;;;;;;6.07;2.05;;;;;;;14.10;67.16;95694.97;2064810;28;20293;-62
2022/05/23 01:18:29;;;;;;;4.45;1.80;;;;;;;14.03;67.42;95697.22;2066126;28;20205;-61
2022/05/23 01:19:30;;;;;;;2.65;1.65;;;;;;;14.08;67.22;95694.25;2064120;28;20213;-61
2022/05/23 01:20:32;;;;;;;2.10;1.80;;;;;;;14.09;67.05;95688.88;2066609;28;20898;-61
2022/05/23 01:22:03;;;;;;;6.53;2.10;;;;;;;14.09;67.05;95685.41;2068333;28;20218;-62
2022/05/23 01:23:09;;;;;;;3.00;1.45;;;;;;;14.18;66.69;95677.72;2067193;28;20268;-62
2022/05/23 01:24:17;;;;;;;2.55;1.67;;;;;;;14.25;66.53;95680.72;2064365;28;20257;-61
2022/05/23 01:25:18;;;;;;;1.77;1.30;;;;;;;14.25;66.65;95679.88;2061056;28;20195;-61
2022/05/23 01:26:20;;;;;;;2.40;1.75;;;;;;;14.16;66.67;95686.66;2061052;28;20210;-61
2022/05/23 01:27:22;;;;;;;3.20;1.63;;;;;;;13.93;67.90;95680.47;2063153;28;20202;-62
2022/05/23 01:28:23;;;;;;;3.63;1.80;;;;;;;13.98;67.43;95681.81;2066481;28;20325;-61
2022/05/23 01:29:25;;;;;;;1.92;1.40;;;;;;;14.09;66.76;95677.53;2067044;28;20202;-61
2022/05/23 01:30:27;;;;;;;4.90;2.30;;;;;;;14.05;66.70;95669.06;2066529;28;20329;-62
2022/05/23 01:31:28;;;;;;;2.70;1.98;;;;;;;14.16;66.25;95678.78;2068064;28;20217;-62
2022/05/23 01:32:30;;;;;;;3.35;1.85;;;;;;;14.24;66.08;95672.94;2066841;28;20206;-60
2022/05/23 01:33:32;;;;;;;7.63;1.50;;;;;;;14.27;65.93;95678.81;2065155;28;20613;-62
2022/05/23 01:34:34;;;;;;;4.55;1.63;;;;;;;14.28;66.01;95679.63;2066358;28;20206;-61
2022/05/23 01:35:35;;;;;;;8.60;2.00;;;;;;;14.12;65.84;95675.53;2067539;28;20199;-61
2022/05/23 01:36:38;;;;;;;5.05;1.58;;;;;;;14.15;65.75;95677.91;2067755;28;20267;-61
2022/05/23 01:37:40;;;;;;;4.07;1.70;;;;;;;14.02;65.99;95649.13;2063408;28;20213;-62
2022/05/23 01:38:41;;;;;;;4.85;1.92;;;;;;;14.18;65.95;95677.72;2067295;28;20439;-61
2022/05/23 01:39:43;;;;;;;3.00;1.80;;;;;;;14.20;65.95;95680.22;2063518;28;20209;-61
2022/05/23 01:40:44;;;;;;;4.82;2.17;;;;;;;14.12;66.52;95680.78;2064201;28;20201;-62
2022/05/23 01:41:46;;;;;;;3.80;2.00;;;;;;;14.06;66.47;95677.78;2064749;28;20233;-61
2022/05/23 01:42:47;;;;;;;3.72;1.60;;;;;;;14.18;66.31;95685.59;2065969;28;20889;-62
2022/05/23 01:43:49;;;;;;;3.13;1.60;;;;;;;14.29;65.66;95691.81;2067761;28;20198;-62
2022/05/23 01:44:51;;;;;;;3.80;1.80;;;;;;;14.20;66.11;95683.66;2069372;28;20237;-62
2022/05/23 01:45:52;;;;;;;2.30;1.48;;;;;;;14.16;67.19;95684.84;2068861;28;20212;-61
2022/05/23 01:46:54;;;;;;;4.63;2.17;;;;;;;13.98;67.33;95678.31;2065990;28;20226;-61
2022/05/23 01:47:57;;;;;;;4.13;2.35;;;;;;;13.85;67.49;95666.13;2066699;28;20198;-61
2022/05/23 01:48:58;;;;;;;5.32;1.90;;;;;;;13.85;67.79;95673.16;2065619;28;20197;-61
2022/05/23 01:50:00;;;;;;;5.32;1.67;;;;;;;13.94;67.74;95676.88;2065300;28;20205;-61
2022/05/23 01:51:01;;;;;;;3.67;1.73;;;;;;;13.91;67.53;95664.00;2062983;28;20861;-62
2022/05/23 01:52:03;;;;;;;4.47;1.45;;;;;;;13.97;67.24;95677.50;2064151;28;20226;-62
2022/05/23 01:53:05;;;;;;;4.30;2.35;;;;;;;14.02;66.73;95669.31;2067002;28;20202;-62
2022/05/23 01:54:06;;;;;;;4.72;1.42;;;;;;;14.02;66.76;95662.25;2068075;28;20230;-61
2022/05/23 01:55:08;;;;;;;3.00;1.77;;;;;;;14.11;66.54;95665.16;2067572;28;20221;-61
2022/05/23 01:56:10;;;;;;;3.75;1.77;;;;;;;14.11;66.30;95660.72;2066108;28;20209;-62
2022/05/23 01:57:12;;;;;;;8.90;1.98;;;;;;;14.16;66.23;95657.78;2065555;28;20193;-61
2022/05/23 01:58:14;;;;;;;1.40;1.20;;;;;;;14.15;66.19;95662.16;2073223;28;20202;-61
2022/05/23 02:01:56;;;;;;;4.88;2.00;;;;;;;14.07;66.48;95648.78;2068319;28;20221;-61
2022/05/23 02:02:57;;;;;;;3.08;2.05;;;;;;;13.97;66.66;95651.25;2068257;28;20392;-61
2022/05/23 02:03:59;;;;;;;3.75;2.25;;;;;;;14.05;66.18;95653.31;2069474;28;20202;-62
2022/05/23 02:05:01;;;;;;;3.35;1.70;;;;;;;14.07;66.41;95650.56;2069973;28;20573;-61
2022/05/23 02:06:02;;;;;;;6.80;1.98;;;;;;;14.07;66.75;95651.41;2068357;28;20205;-61
2022/05/23 02:07:05;;;;;;;3.25;1.67;;;;;;;14.02;66.72;95650.94;2066113;28;20233;-61
2022/05/23 02:08:07;;;;;;;9.25;1.92;;;;;;;13.92;67.28;95658.63;2069304;28;20221;-62
2022/05/23 02:09:08;;;;;;;4.18;1.60;;;;;;;13.79;67.38;95661.31;2069064;28;20203;-62
2022/05/23 02:10:11;;;;;;;5.80;1.98;;;;;;;13.77;67.61;95655.34;2067725;28;20729;-62
2022/05/23 02:11:13;;;;;;;2.38;1.55;;;;;;;13.87;67.34;95656.34;2068419;28;20205;-62
2022/05/23 02:12:17;;;;;;;5.10;2.13;;;;;;;13.99;66.44;95659.00;2069258;28;20662;-61
2022/05/23 02:13:19;;;;;;;8.38;1.90;;;;;;;14.10;65.40;95645.09;2069673;28;20226;-61
2022/05/23 02:14:20;;;;;;;4.22;1.70;;;;;;;14.08;65.42;95644.38;2067731;28;20716;-61
2022/05/23 02:15:22;;;;;;;8.35;1.23;;;;;;;14.07;65.26;95625.16;2067755;28;20221;-61
2022/05/23 02:16:24;;;;;;;3.55;1.50;;;;;;;14.10;65.34;95629.34;2067418;28;20718;-61
2022/05/23 02:17:26;;;;;;;4.47;1.50;;;;;;;14.16;65.09;95634.97;2068088;28;20917;-61
2022/05/23 02:18:29;;;;;;;4.75;1.90;;;;;;;14.21;64.76;95640.72;2069089;28;20204;-61
2022/05/23 02:19:31;;;;;;;4.95;1.55;;;;;;;14.33;64.02;95628.44;2070755;28;20538;-61
2022/05/23 02:20:32;;;;;;;8.32;1.30;;;;;;;14.35;64.17;95637.03;2068227;28;20198;-61
2022/05/23 02:21:34;;;;;;;10.93;2.05;;;;;;;14.33;64.28;95628.44;2067400;28;20522;-61
2022/05/23 02:22:35;;;;;;;3.28;2.13;;;;;;;14.32;65.31;95639.06;2070265;28;20661;-61
2022/05/23 02:23:37;;;;;;;3.55;1.48;;;;;;;14.29;64.16;95629.63;2071027;28;20197;-61
2022/05/23 02:24:38;;;;;;;6.22;1.63;;;;;;;14.27;63.87;95617.56;2071198;28;20198;-61
2022/05/23 02:25:40;;;;;;;3.22;1.35;;;;;;;14.31;64.28;95625.09;2071318;28;20202;-62
2022/05/23 02:26:41;;;;;;;9.45;1.60;;;;;;;14.39;63.59;95624.53;2070018;28;20732;-61
2022/05/23 02:27:43;;;;;;;2.28;1.60;;;;;;;14.41;62.92;95625.25;2070354;28;20208;-61
2022/05/23 02:28:44;;;;;;;3.17;1.40;;;;;;;14.52;63.38;95621.78;2068159;28;20198;-62
2022/05/23 02:29:45;;;;;;;3.92;1.50;;;;;;;14.46;63.62;95620.47;2068050;28;20557;-61
2022/05/23 02:30:47;;;;;;;5.70;1.88;;;;;;;14.40;63.94;95605.19;2069979;28;20198;-61
2022/05/23 02:31:49;;;;;;;3.70;1.60;;;;;;;14.48;63.52;95608.06;2067674;28;20250;-61
2022/05/23 02:32:50;;;;;;;6.75;1.55;;;;;;;14.52;64.23;95611.28;2069211;28;20198;-61
2022/05/23 02:33:52;;;;;;;3.03;1.88;;;;;;;14.43;63.81;95610.19;2066985;28;20566;-61
2022/05/23 02:34:54;;;;;;;9.45;1.55;;;;;;;14.42;63.82;95605.06;2066188;28;20199;-62
2022/05/23 02:35:55;;;;;;;4.18;1.60;;;;;;;14.51;63.76;95597.31;2067516;28;20194;-62
2022/05/23 02:36:57;;;;;;;2.28;1.33;;;;;;;14.52;64.31;95603.41;2066410;28;20226;-61
2022/05/23 02:37:58;;;;;;;5.32;1.42;;;;;;;14.44;64.36;95598.75;2065141;28;20208;-61
2022/05/23 02:39:00;;;;;;;2.60;1.50;;;;;;;14.43;64.42;95594.44;2068107;28;20214;-61
2022/05/23 02:40:02;;;;;;;2.22;1.50;;;;;;;14.48;63.80;95594.09;2068703;28;20209;-61
2022/05/23 02:41:03;;;;;;;6.40;1.83;;;;;;;14.54;63.47;95586.56;2066864;28;20210;-62
2022/05/23 02:42:07;;;;;;;2.95;1.50;;;;;;;14.52;63.01;95588.50;2069151;28;20623;-61
2022/05/23 02:43:09;;;;;;;2.58;1.40;;;;;;;14.42;63.61;95582.25;2066777;28;20207;-62
2022/05/23 02:44:10;;;;;;;4.18;1.98;;;;;;;14.50;63.51;95587.75;2067963;28;20209;-61
2022/05/23 02:45:12;;;;;;;1.33;1.15;;;;;;;14.54;63.13;95586.56;2070672;28;20214;-62
2022/05/23 02:46:13;;;;;;;3.58;1.70;;;;;;;14.59;62.45;95582.75;2070569;28;20657;-61
2022/05/23 02:47:21;;;;;;;7.68;1.50;;;;;;;14.58;62.97;95574.03;2069783;28;20189;-62
2022/05/23 02:48:23;;;;;;;5.63;1.90;;;;;;;14.63;62.86;95573.69;2070366;28;20225;-61
2022/05/23 02:49:24;;;;;;;2.58;1.40;;;;;;;14.67;62.20;95575.16;2071913;28;20214;-61
2022/05/23 02:50:26;;;;;;;5.72;1.60;;;;;;;14.64;62.28;95560.47;2070879;28;20206;-62
2022/05/23 02:51:28;;;;;;;2.85;1.63;;;;;;;14.68;61.64;95564.50;2068658;28;20229;-61
2022/05/23 02:52:29;;;;;;;4.05;1.45;;;;;;;14.79;61.08;95565.44;2067400;28;20650;-61
2022/05/23 02:53:31;;;;;;;2.47;1.30;;;;;;;14.83;60.91;95559.00;2067934;28;20233;-61
2022/05/23 02:54:32;;;;;;;2.80;1.30;;;;;;;14.79;60.94;95558.44;2069104;28;20237;-61
2022/05/23 02:55:33;;;;;;;6.30;1.50;;;;;;;14.79;61.36;95563.69;2068996;28;20197;-61
2022/05/23 02:56:36;;;;;;;4.82;1.50;;;;;;;14.74;61.71;95554.47;2068706;28;20224;-61
2022/05/23 02:57:38;;;;;;;3.97;1.42;;;;;;;14.66;61.84;95547.19;2067165;28;20198;-61
2022/05/23 02:58:40;;;;;;;6.20;2.60;;;;;;;14.68;61.83;95550.56;2065693;28;20266;-61
2022/05/23 02:59:41;;;;;;;1.80;1.20;;;;;;;14.77;61.38;95551.63;2065348;28;20195;-61
2022/05/23 03:00:43;;;;;;;8.85;2.13;;;;;;;14.63;61.61;95547.41;2065046;28;20199;-61
2022/05/23 03:03:06;;;;;;;8.30;1.60;;;;;;;14.78;61.14;95553.25;2067019;28;20202;-61
2022/05/23 03:04:08;;;;;;;3.30;1.65;;;;;;;14.79;60.72;95553.16;2066959;28;20202;-61
2022/05/23 03:05:09;;;;;;;3.85;1.20;;;;;;;14.75;61.14;95554.34;2068725;28;20561;-61
2022/05/23 03:06:11;;;;;;;5.50;1.95;;;;;;;14.77;61.14;95552.44;2067854;28;20202;-61
2022/05/23 03:07:12;;;;;;;2.72;1.50;;;;;;;14.69;61.30;95553.06;2069443;28;20566;-61
2022/05/23 03:08:21;;;;;;;5.05;1.25;;;;;;;14.77;61.13;95560.31;2068612;28;20202;-61
2022/05/23 03:09:23;;;;;;;3.80;1.55;;;;;;;14.81;60.05;95553.03;2063264;28;20194;-61
2022/05/23 03:10:25;;;;;;;1.83;1.35;;;;;;;14.84;60.74;95560.66;2064267;28;20203;-61
2022/05/23 03:11:26;;;;;;;4.30;1.40;;;;;;;14.86;60.46;95561.41;2064685;28;20724;-61
2022/05/23 03:12:28;;;;;;;2.90;1.38;;;;;;;14.81;60.57;95560.91;2065347;28;20199;-61
2022/05/23 03:13:30;;;;;;;2.85;2.08;;;;;;;14.86;59.79;95549.06;2068705;28;20217;-61
2022/05/23 03:14:32;;;;;;;7.20;1.75;;;;;;;14.80;60.03;95540.84;2065789;28;20672;-61
2022/05/23 03:15:33;;;;;;;3.95;1.83;;;;;;;14.95;59.52;95554.56;2067681;28;20198;-61
2022/05/23 03:16:35;;;;;;;3.72;1.70;;;;;;;14.90;59.86;95541.78;2063309;28;20218;-61
2022/05/23 03:17:37;;;;;;;5.88;1.23;;;;;;;14.92;59.66;95554.81;2069731;28;20201;-61
2022/05/23 03:18:39;;;;;;;2.50;1.20;;;;;;;15.02;58.82;95548.69;2069826;28;20197;-61
2022/05/23 03:19:41;;;;;;;6.13;1.45;;;;;;;14.99;59.57;95553.38;2070364;28;20198;-61
2022/05/23 03:20:42;;;;;;;4.40;1.85;;;;;;;14.96;59.45;95551.00;2066995;28;20203;-61
2022/05/23 03:27:07;;;;;;;2.97;1.30;;;;;;;15.16;58.40;95562.53;2062336;28;20830;-60
2022/05/23 03:28:09;;;;;;;4.97;1.30;;;;;;;15.16;58.88;95567.78;2065499;28;20217;-61
2022/05/23 03:29:10;;;;;;;3.13;1.88;;;;;;;15.16;58.82;95566.00;2068640;28;20194;-60
2022/05/23 03:30:12;;;;;;;6.68;1.35;;;;;;;15.14;59.11;95561.81;2067315;28;20209;-60
2022/05/23 03:31:13;;;;;;;2.95;1.42;;;;;;;15.15;59.02;95560.88;2068395;28;20201;-61
2022/05/23 03:32:15;;;;;;;11.20;1.33;;;;;;;15.11;58.86;95562.91;2069613;28;20216;-60
2022/05/23 03:33:16;;;;;;;4.43;1.55;;;;;;;15.12;59.05;95558.47;2068035;28;20569;-60
2022/05/23 03:34:18;;;;;;;8.25;1.48;;;;;;;15.14;59.25;95567.09;2066904;28;20201;-60
2022/05/23 03:35:20;;;;;;;6.80;2.10;;;;;;;15.07;59.30;95564.13;2065555;28;20209;-61
2022/05/23 03:36:22;;;;;;;2.90;1.40;;;;;;;15.08;59.15;95568.41;2065214;28;20214;-60
2022/05/23 03:37:24;;;;;;;2.75;1.48;;;;;;;15.16;58.67;95567.78;2066287;28;20206;-61
2022/05/23 03:38:27;;;;;;;6.35;1.73;;;;;;;15.10;58.82;95563.03;2066352;28;20194;-60
2022/05/23 03:39:28;;;;;;;6.55;2.28;;;;;;;15.09;59.49;95567.44;2065449;28;20204;-60
2022/05/23 03:40:30;;;;;;;2.35;1.23;;;;;;;15.11;59.31;95569.94;2068434;28;20575;-61
2022/05/23 03:41:32;;;;;;;6.13;1.58;;;;;;;15.14;59.32;95580.22;2067542;28;20218;-61
2022/05/23 03:42:34;;;;;;;6.43;1.50;;;;;;;15.14;59.24;95581.06;2066738;28;20210;-60
2022/05/23 03:43:35;;;;;;;2.20;1.45;;;;;;;15.13;59.18;95586.44;2069147;28;20211;-60
2022/05/23 03:44:37;;;;;;;3.60;1.60;;;;;;;15.08;59.36;95580.72;2067114;28;20203;-61
2022/05/23 03:45:38;;;;;;;4.03;1.90;;;;;;;15.12;59.09;95590.88;2065562;28;20206;-60
2022/05/23 03:46:40;;;;;;;3.05;1.50;;;;;;;15.22;58.77;95600.66;2064828;28;20757;-60
2022/05/23 03:47:41;;;;;;;5.55;1.45;;;;;;;15.22;58.65;95604.09;2066325;28;20221;-61
2022/05/23 03:48:43;;;;;;;5.53;1.58;;;;;;;15.21;58.79;95609.50;2067981;28;20205;-60
2022/05/23 03:49:45;;;;;;;3.75;1.50;;;;;;;15.24;58.71;95625.03;2067870;28;20198;-60
2022/05/23 03:50:46;;;;;;;3.17;1.60;;;;;;;15.28;58.76;95637.81;2068278;28;20285;-61
2022/05/23 03:51:47;;;;;;;4.15;1.65;;;;;;;15.28;59.07;95652.75;2068038;28;20951;-60
2022/05/23 03:52:49;;;;;;;2.17;1.50;;;;;;;15.23;59.71;95668.06;2068357;28;20662;-61
2022/05/23 03:53:51;;;;;;;5.07;1.67;;;;;;;15.13;60.66;95679.28;2064261;28;20231;-61
2022/05/23 03:54:52;;;;;;;5.82;1.52;;;;;;;15.04;61.48;95705.47;2067370;28;20197;-60
2022/05/23 03:55:53;;;;;;;2.15;1.40;;;;;;;14.96;61.72;95724.47;2065953;28;20212;-60
2022/05/23 03:56:59;;;;;;;2.80;1.60;;;;;;;14.83;61.95;95733.28;2064157;28;20756;-61
2022/05/23 03:58:02;;;;;;;4.68;1.30;;;;;;;14.90;61.59;95743.34;2067906;28;20202;-61
2022/05/23 03:59:04;;;;;;;7.38;1.95;;;;;;;14.95;60.68;95749.91;2068553;28;20205;-61
2022/05/23 04:00:08;;;;;;;5.45;2.75;;;;;;;15.10;59.55;95744.44;2070470;28;20277;-60
2022/05/23 04:01:15;;;;;;;1.85;1.30;;;;;;;15.24;59.06;95746.00;2066579;28;20198;-60
2022/05/23 04:02:17;;;;;;;2.03;0.95;;;;;;;15.30;59.26;95756.03;2067396;28;20194;-61
2022/05/23 04:03:19;;;;;;;3.60;1.58;;;;;;;15.37;58.67;95756.41;2068171;28;20202;-60
2022/05/23 04:04:20;;;;;;;7.65;1.45;;;;;;;15.50;58.05;95754.47;2066845;28;20195;-61
2022/05/23 04:05:22;;;;;;;5.35;1.20;;;;;;;15.57;58.18;95754.84;2067680;28;20202;-62
2022/05/23 04:06:24;;;;;;;2.28;1.08;;;;;;;15.64;58.03;95769.16;2068137;28;20680;-61
2022/05/23 04:07:26;;;;;;;4.32;1.70;;;;;;;15.66;59.40;95781.25;2062193;28;20650;-61
2022/05/23 04:08:27;;;;;;;3.25;1.25;;;;;;;15.70;59.65;95788.91;2069048;28;20202;-61
2022/05/23 04:09:29;;;;;;;3.08;1.35;;;;;;;15.67;60.03;95792.63;2071084;28;20556;-61
2022/05/23 04:10:31;;;;;;;2.35;1.35;;;;;;;15.68;61.56;95802.22;2065049;28;20530;-61
2022/05/23 04:11:32;;;;;;;1.60;1.27;;;;;;;15.72;59.96;95806.25;2065403;28;20233;-61
2022/05/23 04:12:34;;;;;;;5.70;1.33;;;;;;;15.66;59.95;95806.75;2062824;28;20205;-61
2022/05/23 04:13:36;;;;;;;4.10;1.50;;;;;;;15.64;60.72;95791.09;2063619;28;20283;-61
2022/05/23 04:14:37;;;;;;;3.33;1.92;;;;;;;15.66;59.90;95789.16;2063505;28;20238;-61
2022/05/23 04:15:41;;;;;;;2.20;1.00;;;;;;;15.70;60.56;95794.19;2063998;28;20198;-62
2022/05/23 04:16:46;;;;;;;5.68;1.70;;;;;;;15.74;61.51;95795.59;2069463;28;20229;-63
2022/05/23 04:17:48;;;;;;;19.17;2.03;;;;;;;15.66;62.75;95807.56;2067973;28;20202;-63
2022/05/23 04:18:49;;;;;;;2.58;1.70;;;;;;;15.65;63.76;95803.25;2066326;28;20546;-64
2022/05/23 04:19:54;;;;;;;10.88;1.83;;;;;;;15.60;65.45;95813.31;2065409;28;20255;-65
2022/05/23 04:20:59;;;;;;;4.95;1.95;;;;;;;15.34;66.75;95813.53;2066371;28;20202;-65
2022/05/23 04:22:00;;;;;;;4.30;1.90;;;;;;;15.38;67.53;95814.16;2066280;28;20233;-64
2022/05/23 04:23:02;;;;;;;10.63;2.20;;;;;;;15.25;67.85;95823.91;2067341;28;20199;-66
2022/05/23 04:24:04;;;;;;;6.55;2.83;;;;;;;15.12;70.86;95821.41;2070098;28;20201;-66
2022/05/23 04:25:06;;;;;;;9.98;2.55;;;;;;;14.95;70.88;95828.78;2064400;28;20541;-65
2022/05/23 04:26:08;;;;;;;12.50;3.08;;;;;;;14.76;71.16;95812.72;2060108;28;20218;-64
2022/05/23 04:27:10;;;;;;;29.20;6.50;;;;;;;14.77;74.08;95831.00;2063956;28;20253;-65
2022/05/23 04:28:13;;;;;;;20.45;3.33;;;;;;;14.49;75.54;95834.78;2067315;28;20221;-65
2022/05/23 04:29:14;;;;;;;9.20;2.58;;;;;;;14.42;75.30;95842.25;2068701;28;20214;-64
2022/05/23 04:30:15;;;;;;;8.70;2.67;;;;;;;14.43;76.11;95833.44;2065908;28;20246;-64
2022/05/23 04:31:19;;;;;;;16.88;2.83;;;;;;;14.43;75.79;95822.94;2065192;28;20194;-64
2022/05/23 04:35:13;;;;;;;23.88;2.67;;;;;;;14.03;79.12;95795.16;2069842;28;20200;-66
2022/05/23 04:36:14;;;;;;;6.03;2.00;;;;;;;13.98;80.82;95788.56;2066010;28;20661;-65
2022/05/23 04:37:17;;;;;;;11.05;2.97;;;;;;;14.05;79.98;95795.06;2066744;28;20833;-65
2022/05/23 04:38:19;;;;;;;4.00;2.65;;;;;;;14.10;80.31;95786.84;2066874;28;20205;-65
2022/05/23 04:39:20;;;;;;;10.13;2.22;;;;;;;14.02;80.24;95774.28;2067398;28;20202;-67
2022/05/23 04:40:27;;;;;;;16.10;2.40;;;;;;;14.05;79.94;95755.69;2067543;28;20210;-67
2022/05/23 04:41:28;;;;;;;9.45;2.90;;;;;;;13.99;80.85;95758.75;2066288;28;20221;-66
2022/05/23 04:42:32;;;;;;;7.82;2.75;;;;;;;13.88;81.16;95768.22;2070042;28;20736;-67
2022/05/23 04:43:34;;;;;;;12.88;3.28;;;;;;;13.89;80.58;95742.84;2069710;28;20642;-69
2022/05/23 04:44:35;;;;;;;13.23;2.33;;;;;;;13.89;81.25;95771.72;2067738;28;20203;-65
2022/05/23 04:45:37;;;;;;;7.70;2.90;;;;;;;13.94;81.20;95772.22;2067335;28;20205;-65
2022/05/23 04:50:39;;;;;;;9.00;2.30;;;;;;;14.18;81.93;95701.34;2068687;28;20206;-65
2022/05/23 04:51:40;;;;;;;24.73;2.75;;;;;;;14.20;80.12;95728.31;2069766;28;20588;-66
2022/05/23 04:52:42;;;;;;;7.97;2.45;;;;;;;14.22;80.27;95736.09;2069567;28;20190;-68
2022/05/23 04:53:43;;;;;;;8.00;2.33;;;;;;;14.26;80.09;95749.81;2067373;28;20206;-68
2022/05/23 04:54:47;;;;;;;6.50;2.35;;;;;;;14.26;79.83;95744.53;2068358;28;20616;-69
2022/05/23 04:55:48;;;;;;;7.22;3.10;;;;;;;14.17;81.25;95736.41;2068256;28;20241;-69
2022/05/23 04:56:50;;;;;;;4.45;3.00;;;;;;;14.08;81.57;95726.59;2065223;28;20233;-69
2022/05/23 04:57:53;;;;;;;8.95;3.08;;;;;;;14.17;81.38;95736.41;2067508;28;20190;-67
2022/05/23 04:58:55;;;;;;;14.00;2.67;;;;;;;14.31;81.50;95729.28;2063708;28;20256;-66
2022/05/23 04:59:56;;;;;;;7.65;3.00;;;;;;;14.25;81.29;95727.16;2065037;28;20244;-67
2022/05/23 05:00:59;;;;;;;11.82;2.67;;;;;;;14.20;81.40;95727.47;2066946;28;20206;-65
2022/05/23 05:02:01;;;;;;;6.97;2.45;;;;;;;14.26;81.22;95726.16;2069719;28;20688;-67
2022/05/23 05:03:02;;;;;;;12.23;2.53;;;;;;;14.37;81.96;95727.06;2068754;28;20209;-67
2022/05/23 05:04:04;;;;;;;5.30;2.35;;;;;;;14.26;81.59;95720.91;2065186;28;20252;-68
2022/05/23 05:05:07;;;;;;;10.45;2.45;;;;;;;14.24;81.75;95715.78;2066187;28;20202;-68
2022/05/23 05:06:09;;;;;;;4.25;2.50;;;;;;;14.33;81.50;95701.13;2066680;28;20209;-68
2022/05/23 05:07:10;;;;;;;4.57;2.53;;;;;;;14.52;80.87;95706.69;2070206;28;20276;-68
2022/05/23 05:08:12;;;;;;;7.85;2.40;;;;;;;14.58;80.98;95708.00;2064513;28;20556;-67
2022/05/23 05:09:14;;;;;;;6.00;2.67;;;;;;;14.65;80.71;95706.63;2063276;28;20202;-66
2022/05/23 05:10:15;;;;;;;2.67;1.80;;;;;;;14.63;80.57;95698.00;2065397;28;20205;-65
2022/05/23 05:11:17;;;;;;;10.25;2.67;;;;;;;14.75;79.97;95688.34;2060039;28;20672;-67
2022/05/23 05:12:19;;;;;;;6.65;2.20;;;;;;;14.75;80.04;95662.06;2063069;28;20214;-63
2022/05/23 05:13:20;;;;;;;5.97;2.58;;;;;;;14.80;80.40;95646.78;2063651;28;20206;-63
2022/05/23 05:14:22;;;;;;;5.40;2.83;;;;;;;14.77;80.67;95640.97;2064781;28;20203;-64
2022/05/23 05:15:26;;;;;;;5.43;2.33;;;;;;;14.77;80.57;95628.66;2065805;28;20206;-65